createdAt,value
2022-11-06T00:03:24.727Z,97439.22
2022-11-06T00:08:33.131Z,97453.47
2022-11-06T00:13:26.769Z,97457.13
2022-11-06T00:18:20.262Z,97441.28
2022-11-06T00:23:13.566Z,97441.22
2022-11-06T00:28:08.305Z,97443.81
2022-11-06T00:33:01.560Z,97440.91
2022-11-06T00:37:54.862Z,97435.53
2022-11-06T00:42:48.197Z,97412.53
2022-11-06T00:47:42.886Z,97412.25
2022-11-06T00:52:36.187Z,97405.75
2022-11-06T00:57:29.891Z,97412.03
2022-11-06T01:02:23.304Z,97394.47
2022-11-06T01:07:17.955Z,97379.78
2022-11-06T01:12:13.441Z,97380.13
2022-11-06T01:17:07.446Z,97388.78
2022-11-06T01:22:00.757Z,97379.00
2022-11-06T01:32:09.573Z,97374.00
2022-11-06T01:37:03.063Z,97379.84
2022-11-06T01:41:57.859Z,97374.91
2022-11-06T01:46:51.195Z,97372.25
2022-11-06T01:51:50.273Z,97375.78
2022-11-06T01:56:47.175Z,97370.84
2022-11-06T02:01:42.172Z,97370.53
2022-11-06T02:06:36.007Z,97363.28
2022-11-06T02:11:30.190Z,97364.09
2022-11-06T02:16:38.765Z,97359.47
2022-11-06T02:22:08.702Z,97356.06
2022-11-06T02:27:12.567Z,97328.09
2022-11-06T02:32:13.159Z,97321.13
2022-11-06T02:37:13.623Z,97309.16
2022-11-06T02:42:11.962Z,97310.31
2022-11-06T02:47:10.834Z,97308.31
2022-11-06T02:52:11.921Z,97296.78
2022-11-06T02:57:15.631Z,97292.69
2022-11-06T03:02:17.635Z,97287.72
2022-11-06T03:07:21.119Z,97285.97
2022-11-06T03:12:26.500Z,97284.44
2022-11-06T03:17:30.470Z,97282.81
2022-11-06T03:22:34.442Z,97268.69
2022-11-06T03:27:36.983Z,97268.09
2022-11-06T03:32:36.684Z,97272.00
2022-11-06T03:37:37.242Z,97278.38
2022-11-06T03:42:33.566Z,97281.91
2022-11-06T03:47:33.772Z,97258.63
2022-11-06T03:52:36.928Z,97261.81
2022-11-06T03:57:42.582Z,97266.41
2022-11-06T04:02:42.692Z,97269.13
2022-11-06T04:07:42.598Z,97261.09
2022-11-06T04:12:59.654Z,97259.19
2022-11-06T04:17:53.284Z,97260.53
2022-11-06T04:22:56.786Z,97252.31
2022-11-06T04:28:10.022Z,97242.97
2022-11-06T04:33:12.142Z,97236.66
2022-11-06T04:38:15.806Z,97225.78
2022-11-06T04:43:23.174Z,97213.06
2022-11-06T04:48:19.302Z,97215.03
2022-11-06T04:53:15.654Z,97207.31
2022-11-06T04:58:11.179Z,97223.72
2022-11-06T05:03:04.825Z,97201.13
2022-11-06T05:07:58.051Z,97206.84
2022-11-06T05:12:51.237Z,97194.91
2022-11-06T05:17:45.902Z,97187.66
2022-11-06T05:23:00.750Z,97182.84
2022-11-06T05:27:54.210Z,97192.34
2022-11-06T05:32:49.113Z,97182.88
2022-11-06T05:37:42.362Z,97172.72
2022-11-06T05:42:35.896Z,97176.09
2022-11-06T05:47:29.226Z,97174.63
2022-11-06T05:52:23.989Z,97181.63
2022-11-06T05:57:17.290Z,97172.03
2022-11-06T06:02:11.148Z,97181.41
2022-11-06T06:07:04.562Z,97176.41
2022-11-06T06:11:59.250Z,97185.31
2022-11-06T06:16:52.526Z,97183.97
2022-11-06T06:21:45.960Z,97185.63
2022-11-06T06:26:39.152Z,97186.47
2022-11-06T06:31:33.751Z,97185.94
2022-11-06T06:36:26.998Z,97191.31
2022-11-06T06:41:20.268Z,97192.47
2022-11-06T06:46:13.482Z,97191.06
2022-11-06T06:51:08.906Z,97195.91
2022-11-06T06:56:02.959Z,97213.44
2022-11-06T07:00:56.265Z,97218.19
2022-11-06T07:05:49.608Z,97187.34
2022-11-06T07:10:44.228Z,97178.75
2022-11-06T07:15:37.509Z,97183.97
2022-11-06T07:20:31.001Z,97183.72
2022-11-06T07:25:24.254Z,97170.63
2022-11-06T07:30:19.078Z,97165.97
2022-11-06T07:35:12.705Z,97150.50
2022-11-06T07:40:07.687Z,97143.13
2022-11-06T07:45:00.950Z,97138.06
2022-11-06T07:49:57.798Z,97134.97
2022-11-06T07:54:51.160Z,97115.78
2022-11-06T07:59:44.436Z,97122.03
2022-11-06T08:04:37.657Z,97103.88
2022-11-06T08:09:32.799Z,97096.41
2022-11-06T08:14:26.448Z,97074.50
2022-11-06T08:19:19.747Z,97069.59
2022-11-06T08:24:17.635Z,97074.09
2022-11-06T08:29:15.467Z,97066.72
2022-11-06T08:34:09.130Z,97064.91
2022-11-06T08:39:02.358Z,97059.81
2022-11-06T08:43:55.672Z,97056.31
2022-11-06T08:48:50.241Z,97037.22
2022-11-06T08:53:43.575Z,97044.56
2022-11-06T08:58:36.944Z,97042.44
2022-11-06T09:03:30.287Z,97039.69
2022-11-06T09:08:25.251Z,97039.09
2022-11-06T09:13:18.650Z,97046.91
2022-11-06T09:18:12.763Z,97042.59
2022-11-06T09:23:09.279Z,97049.06
2022-11-06T09:28:03.929Z,97051.72
2022-11-06T09:33:00.159Z,97058.03
2022-11-06T09:37:53.871Z,97044.00
2022-11-06T09:43:09.377Z,97025.16
2022-11-06T09:48:18.068Z,97017.31
2022-11-06T09:53:21.186Z,97017.44
2022-11-06T09:58:22.333Z,97027.91
2022-11-06T10:03:23.227Z,97021.97
2022-11-06T10:08:23.264Z,97028.97
2022-11-06T10:13:51.713Z,97026.97
2022-11-06T10:18:59.477Z,97011.00
2022-11-06T10:23:59.407Z,96988.63
2022-11-06T10:29:27.831Z,96954.53
2022-11-06T10:34:28.988Z,96938.97
2022-11-06T10:39:28.681Z,96945.66
2022-11-06T10:44:29.183Z,96960.59
2022-11-06T10:49:36.691Z,96969.19
2022-11-06T10:54:52.218Z,96960.06
2022-11-06T10:59:46.998Z,96965.00
2022-11-06T11:04:40.993Z,96962.09
2022-11-06T11:09:35.526Z,96959.56
2022-11-06T11:14:31.871Z,96950.66
2022-11-06T11:19:35.549Z,96939.25
2022-11-06T11:24:29.880Z,96923.97
2022-11-06T11:29:28.294Z,96921.19
2022-11-06T11:34:26.997Z,96915.88
2022-11-06T11:39:25.181Z,96900.50
2022-11-06T11:44:20.836Z,96894.44
2022-11-06T11:49:31.039Z,96898.31
2022-11-06T11:54:27.817Z,96895.44
2022-11-06T11:59:26.137Z,96886.72
2022-11-06T12:04:27.085Z,96873.03
2022-11-06T12:09:23.672Z,96870.13
2022-11-06T12:14:38.803Z,96845.88
2022-11-06T12:19:37.001Z,96846.59
2022-11-06T12:24:44.565Z,96850.72
2022-11-06T12:29:45.529Z,96845.22
2022-11-06T12:34:46.721Z,96852.19
2022-11-06T12:39:47.552Z,96840.91
2022-11-06T12:44:40.987Z,96837.44
2022-11-06T12:50:10.725Z,96832.03
2022-11-06T12:55:24.895Z,96822.09
2022-11-06T13:00:21.842Z,96822.66
2022-11-06T13:05:21.421Z,96803.06
2022-11-06T13:10:38.194Z,96800.31
2022-11-06T13:15:42.113Z,96805.31
2022-11-06T13:20:50.003Z,96809.28
2022-11-06T13:25:56.919Z,96810.56
2022-11-06T13:30:52.489Z,96806.44
2022-11-06T13:35:47.967Z,96797.50
2022-11-06T13:40:46.913Z,96799.94
2022-11-06T13:45:53.279Z,96800.38
2022-11-06T13:50:59.562Z,96798.16
2022-11-06T13:56:10.730Z,96803.78
2022-11-06T14:01:19.427Z,96803.53
2022-11-06T14:06:20.107Z,96805.34
2022-11-06T14:11:18.400Z,96818.69
2022-11-06T14:16:32.009Z,96825.28
2022-11-06T14:21:49.094Z,96820.09
2022-11-06T14:26:46.670Z,96786.22
2022-11-06T14:32:03.392Z,96794.19
2022-11-06T14:36:56.666Z,96807.13
2022-11-06T14:42:01.208Z,96807.13
2022-11-06T14:46:59.761Z,96808.16
2022-11-06T14:52:02.647Z,96813.59
2022-11-06T14:56:56.706Z,96804.97
2022-11-06T15:02:03.594Z,96807.16
2022-11-06T15:07:09.608Z,96815.63
2022-11-06T15:12:05.325Z,96811.00
2022-11-06T15:17:10.742Z,96808.03
2022-11-06T15:22:16.846Z,96813.81
2022-11-06T15:27:18.143Z,96819.03
2022-11-06T15:32:18.018Z,96802.13
2022-11-06T15:37:16.380Z,96795.69
2022-11-06T15:42:15.255Z,96795.16
2022-11-06T15:47:24.609Z,96802.66
2022-11-06T15:52:19.704Z,96815.91
2022-11-06T15:57:21.603Z,96813.81
2022-11-06T16:02:19.157Z,96813.28
2022-11-06T16:07:16.333Z,96802.75
2022-11-06T16:12:14.613Z,96793.16
2022-11-06T16:17:13.090Z,96790.22
2022-11-06T16:22:12.028Z,96795.13
2022-11-06T16:27:08.372Z,96808.66
2022-11-06T16:32:06.945Z,96807.38
2022-11-06T16:37:03.567Z,96822.38
2022-11-06T16:42:25.765Z,96818.88
2022-11-06T16:47:21.707Z,96824.38
2022-11-06T16:52:26.744Z,96826.28
2022-11-06T16:57:26.105Z,96838.25
2022-11-06T17:02:26.185Z,96826.59
2022-11-06T17:07:23.489Z,96824.03
2022-11-06T17:12:16.794Z,96822.97
2022-11-06T17:17:26.772Z,96822.25
2022-11-06T17:22:20.142Z,96829.97
2022-11-06T17:27:13.484Z,96839.03
2022-11-06T17:32:06.916Z,96852.16
2022-11-06T17:37:13.469Z,96862.66
2022-11-06T17:42:06.803Z,96855.31
2022-11-06T17:47:00.132Z,96859.00
2022-11-06T17:51:59.994Z,96858.16
2022-11-06T17:56:56.971Z,96860.91
2022-11-06T18:01:50.827Z,96878.09
2022-11-06T18:06:46.507Z,96875.09
2022-11-06T18:11:39.807Z,96874.75
2022-11-06T18:16:43.215Z,96895.38
2022-11-06T18:21:37.826Z,96887.56
2022-11-06T18:26:31.155Z,96897.81
2022-11-06T18:31:37.672Z,96894.31
2022-11-06T18:36:32.536Z,96884.81
2022-11-06T18:41:25.830Z,96882.22
2022-11-06T18:46:23.131Z,96886.84
2022-11-06T18:51:33.521Z,96888.97
2022-11-06T18:56:28.301Z,96912.31
2022-11-06T19:01:23.188Z,96919.03
2022-11-06T19:06:21.395Z,96928.22
2022-11-06T19:11:17.745Z,96950.03
2022-11-06T19:16:13.347Z,96968.44
2022-11-06T19:21:16.296Z,96979.31
2022-11-06T19:26:30.608Z,96983.91
2022-11-06T19:44:22.019Z,96974.31
2022-11-06T19:56:27.258Z,96988.09
2022-11-06T20:08:10.343Z,97009.50
2022-11-06T20:13:13.175Z,97023.56
2022-11-06T20:18:08.165Z,97021.59
2022-11-06T20:23:03.416Z,97017.22
2022-11-06T20:27:59.633Z,97004.81
2022-11-06T20:33:00.000Z,97019.03
2022-11-06T20:44:57.028Z,97015.72
2022-11-06T20:49:50.426Z,97023.94
2022-11-06T20:54:48.234Z,97023.69
2022-11-06T20:59:45.676Z,97023.97
2022-11-06T21:04:41.973Z,97053.09
2022-11-06T21:09:37.961Z,97040.41
2022-11-06T21:14:31.517Z,97038.13
2022-11-06T21:19:29.784Z,97049.53
2022-11-06T21:24:23.304Z,97037.25
2022-11-06T21:29:16.743Z,97037.31
2022-11-06T21:34:10.193Z,97032.94
2022-11-06T21:39:09.030Z,97030.63
2022-11-06T21:44:03.999Z,97026.03
2022-11-06T21:48:58.258Z,97036.84
2022-11-06T21:54:13.044Z,97030.41
2022-11-06T21:59:11.580Z,97025.97
2022-11-06T22:04:05.712Z,97028.78
2022-11-06T22:09:01.574Z,97033.81
2022-11-06T22:13:57.417Z,97013.59
2022-11-06T22:18:52.952Z,97012.66
2022-11-06T22:23:46.687Z,97013.09
2022-11-06T22:28:40.451Z,97003.91
2022-11-06T22:33:35.165Z,97008.00
2022-11-06T22:38:29.877Z,97017.31
2022-11-06T22:43:23.203Z,97023.56
2022-11-06T22:48:16.637Z,97020.06
2022-11-06T22:53:14.830Z,97025.88
2022-11-06T22:58:09.950Z,97033.63
2022-11-06T23:03:03.633Z,97037.94
2022-11-06T23:07:57.651Z,97056.69
2022-11-06T23:12:50.964Z,97065.31
2022-11-06T23:17:45.633Z,97066.81
2022-11-06T23:22:38.885Z,97044.47
2022-11-06T23:27:32.554Z,97066.19
2022-11-06T23:32:25.816Z,97058.72
2022-11-06T23:37:21.131Z,97073.13
2022-11-06T23:42:15.842Z,97075.81
2022-11-06T23:47:09.104Z,97077.13
2022-11-06T23:52:02.681Z,97076.16
2022-11-06T23:56:57.365Z,97085.38
